Time;durP1;ratioP1;P1;durP2;ratioP2;P2;SDS_P1;SDS_P2;PMS_P1;PMS_P2;Temp;Humidity;BMP_temperature;BMP_pressure;BME280_temperature;BME280_humidity;BME280_pressure;Samples;Min_cycle;Max_cycle;Signal;HPM_P1;HPM_P2
2022/07/14 00:02:24;;;;;;;0.30;0.30;;;;;;;11.64;100.00;100603.00;7385758;19;20018;-79
2022/07/14 00:04:50;;;;;;;0.77;0.50;;;;;;;11.58;100.00;100607.66;7389556;19;20033;-79
2022/07/14 00:07:16;;;;;;;1.75;0.38;;;;;;;11.55;100.00;100599.41;7390168;19;20035;-80
2022/07/14 00:09:42;;;;;;;0.30;0.30;;;;;;;11.50;100.00;100591.69;7386182;19;20019;-79
2022/07/14 00:12:08;;;;;;;0.30;0.30;;;;;;;11.49;100.00;100596.47;7386433;19;20022;-80
2022/07/14 00:14:35;;;;;;;1.45;0.40;;;;;;;11.44;100.00;100589.50;7388642;19;20022;-79
2022/07/14 00:17:01;;;;;;;0.10;0.10;;;;;;;11.39;100.00;100586.56;7390031;19;20022;-79
2022/07/14 00:19:27;;;;;;;0.88;0.32;;;;;;;11.38;100.00;100596.94;7387960;19;20029;-79
2022/07/14 00:21:54;;;;;;;0.40;0.40;;;;;;;11.35;100.00;100605.44;7385209;19;20718;-79
2022/07/14 00:24:20;;;;;;;0.47;0.40;;;;;;;11.23;100.00;100600.78;7384183;19;20022;-79
2022/07/14 00:26:46;;;;;;;0.17;0.17;;;;;;;11.18;100.00;100601.38;7390610;19;20408;-79
2022/07/14 00:29:12;;;;;;;0.40;0.40;;;;;;;11.15;100.00;100591.16;7387565;19;20026;-79
2022/07/14 00:31:38;;;;;;;0.47;0.47;;;;;;;11.12;100.00;100590.06;7395098;19;20018;-78
2022/07/14 00:34:05;;;;;;;0.45;0.45;;;;;;;11.10;100.00;100597.34;7391253;19;20018;-79
2022/07/14 00:36:31;;;;;;;0.50;0.50;;;;;;;11.05;100.00;100592.38;7399035;19;20014;-79
2022/07/14 00:38:57;;;;;;;0.30;0.28;;;;;;;11.00;100.00;100595.78;7393047;19;20746;-79
2022/07/14 00:41:23;;;;;;;0.47;0.28;;;;;;;11.01;100.00;100586.16;7393288;19;20018;-79
2022/07/14 00:43:50;;;;;;;0.35;0.28;;;;;;;10.99;100.00;100591.44;7390312;19;20014;-79
2022/07/14 00:46:16;;;;;;;1.58;1.23;;;;;;;10.98;100.00;100584.31;7395516;19;20045;-78
2022/07/14 00:48:42;;;;;;;0.80;0.10;;;;;;;10.94;100.00;100583.66;7389943;19;20019;-79
2022/07/14 00:51:09;;;;;;;0.20;0.20;;;;;;;10.88;100.00;100591.09;7391991;19;20014;-79
2022/07/14 00:53:35;;;;;;;1.15;0.40;;;;;;;10.86;100.00;100594.34;7392844;19;20468;-79
2022/07/14 00:56:01;;;;;;;0.30;0.28;;;;;;;10.81;100.00;100575.44;7396244;19;20105;-79
2022/07/14 00:58:27;;;;;;;0.10;0.10;;;;;;;10.80;100.00;100585.03;7394008;19;20022;-79
2022/07/14 01:00:53;;;;;;;0.20;0.20;;;;;;;10.77;100.00;100576.81;7390913;19;20384;-79
2022/07/14 01:03:20;;;;;;;2.47;0.82;;;;;;;10.72;100.00;100571.84;7392471;19;20030;-78
2022/07/14 01:05:46;;;;;;;0.40;0.40;;;;;;;10.70;100.00;100571.53;7393396;19;20018;-79
2022/07/14 01:08:12;;;;;;;0.40;0.40;;;;;;;10.66;100.00;100574.44;7391345;19;20502;-79
2022/07/14 01:10:40;;;;;;;0.40;0.40;;;;;;;10.63;100.00;100573.34;7392055;19;20077;-79
2022/07/14 01:13:06;;;;;;;0.22;0.22;;;;;;;10.63;100.00;100570.56;7393199;19;20467;-82
2022/07/14 01:15:32;;;;;;;1.58;0.68;;;;;;;10.58;100.00;100562.81;7392693;19;20029;-82
2022/07/14 01:17:59;;;;;;;1.75;0.70;;;;;;;10.62;100.00;100565.47;7395206;19;20018;-83
2022/07/14 01:20:25;;;;;;;1.70;0.40;;;;;;;10.63;100.00;100559.41;7391488;19;20017;-82
2022/07/14 01:22:51;;;;;;;0.98;0.40;;;;;;;10.61;100.00;100570.25;7391246;19;20094;-82
2022/07/14 01:25:19;;;;;;;0.40;0.40;;;;;;;10.59;100.00;100563.56;7387601;19;20029;-82
2022/07/14 01:27:46;;;;;;;0.30;0.30;;;;;;;10.58;100.00;100567.63;7391348;19;20374;-84
2022/07/14 01:30:13;;;;;;;0.88;0.40;;;;;;;10.54;100.00;100573.34;7389835;19;20023;-83
2022/07/14 01:32:39;;;;;;;0.50;0.50;;;;;;;10.54;100.00;100566.97;7389706;19;20102;-82
2022/07/14 01:35:07;;;;;;;0.28;0.20;;;;;;;10.53;100.00;100568.19;7390655;19;20018;-83
2022/07/14 01:37:34;;;;;;;0.43;0.43;;;;;;;10.57;100.00;100566.84;7394466;19;20015;-83
2022/07/14 01:40:01;;;;;;;0.45;0.20;;;;;;;10.56;100.00;100568.09;7391034;19;20030;-83
2022/07/14 01:42:27;;;;;;;0.30;0.30;;;;;;;10.53;100.00;100560.63;7390213;19;20017;-83
2022/07/14 01:44:53;;;;;;;0.73;0.57;;;;;;;10.55;100.00;100558.16;7391295;19;20011;-83
2022/07/14 01:47:19;;;;;;;2.45;0.40;;;;;;;10.51;100.00;100568.66;7394981;19;20018;-82
2022/07/14 01:49:45;;;;;;;0.10;0.10;;;;;;;10.42;100.00;100560.28;7389220;19;20022;-82
2022/07/14 01:52:12;;;;;;;0.77;0.77;;;;;;;10.47;100.00;100562.47;7393064;19;20051;-83
2022/07/14 01:54:39;;;;;;;1.45;0.85;;;;;;;10.49;100.00;100562.78;7388869;19;20023;-83
2022/07/14 01:57:08;;;;;;;1.00;0.85;;;;;;;10.48;100.00;100564.00;7394684;19;20018;-83
2022/07/14 01:59:35;;;;;;;0.35;0.35;;;;;;;10.54;100.00;100561.41;7389425;19;20060;-81
2022/07/14 02:02:02;;;;;;;0.85;0.30;;;;;;;10.61;100.00;100566.72;7389370;19;20031;-83
2022/07/14 02:04:28;;;;;;;0.40;0.20;;;;;;;10.67;100.00;100567.66;7392056;19;20117;-83
2022/07/14 02:06:55;;;;;;;1.23;0.17;;;;;;;10.69;100.00;100562.41;7394252;19;20041;-82
2022/07/14 02:12:34;;;;;;;0.68;0.63;;;;;;;10.62;100.00;100569.03;7388871;19;20015;-82
2022/07/14 02:15:01;;;;;;;0.47;0.47;;;;;;;10.59;100.00;100571.94;7390261;19;20018;-83
2022/07/14 02:17:28;;;;;;;0.95;0.22;;;;;;;10.60;100.00;100571.50;7389499;19;20384;-82
2022/07/14 02:19:54;;;;;;;1.83;0.50;;;;;;;10.51;100.00;100557.53;7390177;19;20053;-82
2022/07/14 02:22:21;;;;;;;0.20;0.20;;;;;;;10.49;100.00;100560.00;7390585;19;20022;-82
2022/07/14 02:24:47;;;;;;;0.30;0.30;;;;;;;10.45;100.00;100553.78;7388235;19;20014;-82
2022/07/14 02:27:13;;;;;;;1.55;0.47;;;;;;;10.39;100.00;100552.84;7393573;19;20018;-83
2022/07/14 02:29:39;;;;;;;1.48;0.38;;;;;;;10.43;100.00;100561.84;7390034;19;20015;-82
2022/07/14 02:32:08;;;;;;;0.95;0.40;;;;;;;10.41;100.00;100564.31;7390238;19;20495;-83
2022/07/14 02:34:34;;;;;;;0.22;0.22;;;;;;;10.39;100.00;100566.78;7387769;19;20074;-83
2022/07/14 02:37:00;;;;;;;0.55;0.30;;;;;;;10.39;100.00;100566.78;7393130;19;20018;-82
2022/07/14 02:39:26;;;;;;;1.73;0.20;;;;;;;10.31;100.00;100571.03;7388295;19;20030;-82
2022/07/14 02:41:53;;;;;;;0.38;0.35;;;;;;;10.26;100.00;100568.88;7388393;19;20026;-83
2022/07/14 02:44:19;;;;;;;2.38;0.77;;;;;;;10.26;100.00;100563.31;7387722;19;20026;-83
2022/07/14 02:46:46;;;;;;;0.40;0.40;;;;;;;10.24;100.00;100565.75;7392660;19;20026;-83
2022/07/14 02:49:12;;;;;;;0.63;0.50;;;;;;;10.21;100.00;100568.66;7386477;19;20014;-83
2022/07/14 02:51:41;;;;;;;0.35;0.35;;;;;;;10.16;100.00;100570.03;7388111;19;20014;-82
2022/07/14 02:54:07;;;;;;;0.30;0.30;;;;;;;10.18;100.00;100573.13;7384801;19;20042;-81
2022/07/14 02:56:34;;;;;;;2.90;0.50;;;;;;;10.15;100.00;100567.72;7392255;19;20547;-83
2022/07/14 02:59:07;;;;;;;0.65;0.35;;;;;;;10.15;100.00;100562.16;7388012;19;20017;-82
2022/07/14 03:01:34;;;;;;;0.30;0.30;;;;;;;10.17;100.00;100570.81;7387774;19;20011;-82
2022/07/14 03:04:01;;;;;;;1.55;0.25;;;;;;;10.14;100.00;100566.94;7387564;19;20037;-83
2022/07/14 03:06:27;;;;;;;0.20;0.10;;;;;;;10.12;100.00;100568.59;7391519;19;20034;-83
2022/07/14 03:08:53;;;;;;;0.17;0.17;;;;;;;10.10;100.00;100569.03;7387213;19;20020;-81
2022/07/14 03:11:20;;;;;;;0.30;0.20;;;;;;;10.11;100.00;100567.84;7390173;19;20094;-82
2022/07/14 03:13:47;;;;;;;0.22;0.22;;;;;;;10.12;100.00;100563.81;7387181;19;20018;-81
2022/07/14 03:16:15;;;;;;;0.40;0.20;;;;;;;10.08;100.00;100562.38;7389979;19;20037;-82
2022/07/14 03:18:43;;;;;;;0.52;0.52;;;;;;;10.06;100.00;100562.06;7386990;19;20025;-83
2022/07/14 03:21:12;;;;;;;0.30;0.30;;;;;;;10.08;100.00;100563.16;7387407;19;20046;-83
2022/07/14 03:23:41;;;;;;;0.15;0.15;;;;;;;10.13;100.00;100559.81;7386678;19;20024;-82
2022/07/14 03:26:12;;;;;;;2.45;0.57;;;;;;;10.06;100.00;100565.63;7389633;19;20015;-81
2022/07/14 03:28:38;;;;;;;0.90;0.65;;;;;;;10.07;100.00;100561.59;7385319;19;20390;-82
2022/07/14 03:31:06;;;;;;;2.72;1.92;;;;;;;10.14;100.00;100568.94;7387175;19;20010;-81
2022/07/14 03:33:33;;;;;;;0.98;0.45;;;;;;;10.09;100.00;100564.69;7386414;19;20025;-82
2022/07/14 03:36:00;;;;;;;0.55;0.55;;;;;;;10.06;100.00;100560.06;7388802;19;20022;-81
2022/07/14 03:38:26;;;;;;;1.70;0.47;;;;;;;10.11;100.00;100564.28;7387523;19;20499;-81
2022/07/14 03:40:55;;;;;;;0.35;0.35;;;;;;;10.14;100.00;100566.94;7386942;19;20014;-81
2022/07/14 03:43:21;;;;;;;7.97;0.80;;;;;;;10.17;100.00;100560.47;7385965;19;20018;-82
2022/07/14 03:45:48;;;;;;;1.40;0.65;;;;;;;10.26;100.00;100554.94;7389539;19;20011;-80
2022/07/14 03:48:17;;;;;;;0.80;0.30;;;;;;;10.30;100.00;100557.59;7384022;19;20018;-82
2022/07/14 03:50:48;;;;;;;0.38;0.38;;;;;;;10.32;100.00;100553.13;7386327;19;20065;-82
2022/07/14 03:53:15;;;;;;;0.38;0.38;;;;;;;10.34;100.00;100553.44;7386490;19;20366;-81
2022/07/14 03:55:45;;;;;;;0.60;0.60;;;;;;;10.40;100.00;100550.81;7386342;19;20011;-81
2022/07/14 03:58:12;;;;;;;0.53;0.30;;;;;;;10.40;100.00;100551.59;7385598;19;20603;-81
2022/07/14 04:00:38;;;;;;;1.80;0.75;;;;;;;10.43;100.00;100561.84;7386270;19;20026;-81
2022/07/14 04:03:04;;;;;;;0.70;0.70;;;;;;;10.46;100.00;100558.13;7386917;19;20029;-81
2022/07/14 04:05:32;;;;;;;0.63;0.50;;;;;;;10.50;100.00;100550.41;7385451;19;20022;-81
2022/07/14 04:08:03;;;;;;;1.00;0.93;;;;;;;10.55;100.00;100546.25;7386244;19;20019;-81
2022/07/14 04:10:39;;;;;;;7.63;0.50;;;;;;;10.59;100.00;100550.44;7387677;19;20020;-81
2022/07/14 04:13:05;;;;;;;0.28;0.28;;;;;;;10.65;100.00;100551.38;7385119;19;20525;-80
2022/07/14 04:15:32;;;;;;;1.10;0.50;;;;;;;10.69;100.00;100551.25;7388588;19;20021;-81
2022/07/14 04:17:58;;;;;;;0.35;0.35;;;;;;;10.78;100.00;100553.28;7384430;19;20010;-81
2022/07/14 04:20:26;;;;;;;0.68;0.50;;;;;;;10.87;100.00;100561.69;7385003;19;20019;-81
2022/07/14 04:22:52;;;;;;;0.30;0.30;;;;;;;10.95;100.00;100557.34;7384783;19;20433;-81
2022/07/14 04:25:18;;;;;;;0.43;0.43;;;;;;;11.03;100.00;100553.03;7385162;19;20025;-81
2022/07/14 04:27:45;;;;;;;0.43;0.43;;;;;;;11.10;100.00;100558.31;7385528;19;20022;-81
2022/07/14 04:30:13;;;;;;;0.25;0.25;;;;;;;11.14;100.00;100558.94;7385613;19;20022;-81
2022/07/14 04:32:40;;;;;;;0.25;0.25;;;;;;;11.16;100.00;100553.69;7384503;19;20007;-81
2022/07/14 04:35:07;;;;;;;2.05;0.22;;;;;;;11.26;100.00;100558.03;7383004;19;20021;-81
2022/07/14 04:37:34;;;;;;;0.38;0.38;;;;;;;11.37;100.00;100556.34;7385556;19;20041;-81
2022/07/14 04:40:07;;;;;;;1.60;0.40;;;;;;;11.44;100.00;100552.47;7383502;19;20679;-81
2022/07/14 04:42:33;;;;;;;1.75;0.45;;;;;;;11.53;100.00;100557.25;7384350;19;20106;-81
2022/07/14 04:45:00;;;;;;;3.60;0.70;;;;;;;11.57;100.00;100558.66;7385600;19;20040;-81
2022/07/14 04:47:26;;;;;;;0.90;0.30;;;;;;;11.62;100.00;100555.25;7385391;19;20662;-81
2022/07/14 04:52:47;;;;;;;0.15;0.15;;;;;;;11.68;100.00;100567.38;7384159;19;20025;-81
2022/07/14 04:55:32;;;;;;;;;;;;;;;11.79;100.00;100559.31;7387341;19;20349;-81
2022/07/14 04:58:05;;;;;;;1.02;0.68;;;;;;;11.89;100.00;100563.63;7386073;19;20249;-81
2022/07/14 05:00:31;;;;;;;2.28;0.40;;;;;;;11.94;100.00;100565.78;7383796;19;20022;-82
2022/07/14 05:02:57;;;;;;;0.63;0.30;;;;;;;12.03;100.00;100568.59;7384715;19;20010;-81
2022/07/14 05:05:24;;;;;;;0.93;0.30;;;;;;;12.14;100.00;100557.69;7383634;19;20015;-81
2022/07/14 05:07:50;;;;;;;0.80;0.70;;;;;;;12.18;100.00;100565.91;7384072;19;20015;-81
2022/07/14 05:10:17;;;;;;;7.63;0.95;;;;;;;12.23;100.00;100564.50;7385226;19;20014;-81
2022/07/14 05:12:43;;;;;;;0.68;0.30;;;;;;;12.28;100.00;100572.25;7384427;19;20476;-81
2022/07/14 05:15:10;;;;;;;0.57;0.32;;;;;;;12.33;100.00;100569.59;7385318;19;20018;-81
2022/07/14 05:17:36;;;;;;;2.72;0.95;;;;;;;12.39;100.00;100569.75;7390522;19;20018;-81
2022/07/14 05:20:08;;;;;;;1.73;0.70;;;;;;;12.44;100.00;100575.44;7390931;19;20496;-80
2022/07/14 05:22:38;;;;;;;2.00;0.98;;;;;;;12.52;100.00;100575.88;7394576;19;20022;-80
2022/07/14 05:25:08;;;;;;;1.17;0.82;;;;;;;12.55;100.00;100578.50;7388982;19;20025;-81
2022/07/14 05:27:36;;;;;;;2.85;1.58;;;;;;;12.61;100.00;100573.81;7392013;19;20598;-82
2022/07/14 05:30:08;;;;;;;1.38;0.63;;;;;;;12.68;100.00;100578.31;7388353;19;20014;-82
2022/07/14 05:32:36;;;;;;;0.57;0.57;;;;;;;12.76;100.00;100585.09;7390713;19;20705;-81
2022/07/14 05:35:05;;;;;;;0.82;0.40;;;;;;;12.83;100.00;100590.34;7389280;19;20018;-81
2022/07/14 05:37:32;;;;;;;0.40;0.40;;;;;;;12.89;100.00;100588.44;7390514;19;20238;-81
2022/07/14 05:40:00;;;;;;;6.45;0.40;;;;;;;12.94;100.00;100580.19;7391425;19;20006;-84
2022/07/14 05:42:26;;;;;;;2.78;0.68;;;;;;;13.06;100.00;100581.22;7390318;19;20468;-82
2022/07/14 05:44:52;;;;;;;0.40;0.35;;;;;;;13.19;100.00;100578.22;7392789;19;20018;-83
2022/07/14 05:47:19;;;;;;;1.40;0.85;;;;;;;13.30;100.00;100592.44;7395187;19;20019;-83
2022/07/14 05:49:45;;;;;;;2.35;0.52;;;;;;;13.43;100.00;100587.38;7388658;19;20014;-83
2022/07/14 05:52:14;;;;;;;1.52;0.28;;;;;;;13.51;100.00;100589.31;7391736;19;20037;-83
2022/07/14 05:54:41;;;;;;;0.38;0.32;;;;;;;13.53;100.00;100586.06;7388872;19;20015;-82
2022/07/14 05:57:13;;;;;;;0.57;0.52;;;;;;;13.60;100.00;100580.84;7395728;19;20022;-83
2022/07/14 05:59:39;;;;;;;1.02;0.60;;;;;;;13.69;100.00;100580.78;7389722;19;20029;-82
2022/07/14 06:02:06;;;;;;;0.40;0.38;;;;;;;13.74;100.00;100589.78;7391259;19;20031;-83
2022/07/14 06:04:32;;;;;;;3.50;0.82;;;;;;;13.80;100.00;100585.03;7389963;19;20023;-83
2022/07/14 06:07:01;;;;;;;1.88;0.52;;;;;;;13.88;100.00;100589.03;7394347;19;20034;-83
2022/07/14 06:09:27;;;;;;;0.50;0.40;;;;;;;14.10;100.00;100578.22;7390589;19;20478;-83
2022/07/14 06:11:53;;;;;;;1.75;0.73;;;;;;;14.19;100.00;100580.94;7389838;19;20475;-83
2022/07/14 06:14:23;;;;;;;5.13;1.10;;;;;;;14.38;100.00;100577.47;7390120;19;20090;-82
2022/07/14 06:16:49;;;;;;;1.38;0.85;;;;;;;14.55;100.00;100580.59;7391306;19;20010;-82
2022/07/14 06:19:15;;;;;;;5.25;0.80;;;;;;;14.69;100.00;100585.38;7388483;19;20479;-81
2022/07/14 06:21:43;;;;;;;0.13;0.13;;;;;;;14.75;100.00;100577.81;7390319;19;20026;-82
2022/07/14 06:24:12;;;;;;;2.08;0.75;;;;;;;14.87;100.00;100576.75;7384428;19;20014;-84
2022/07/14 06:26:38;;;;;;;0.50;0.50;;;;;;;15.04;100.00;100588.19;7391064;19;20022;-82
2022/07/14 06:29:04;;;;;;;0.45;0.32;;;;;;;15.20;100.00;100582.81;7386596;19;20526;-82
2022/07/14 06:31:34;;;;;;;0.40;0.15;;;;;;;15.30;100.00;100591.09;7386777;19;20018;-83
2022/07/14 06:34:02;;;;;;;0.43;0.38;;;;;;;15.39;100.00;100585.34;7388216;19;20015;-84
2022/07/14 06:36:46;;;;;;;0.70;0.40;;;;;;;15.41;100.00;100577.22;7392985;19;20046;-84
2022/07/14 06:39:14;;;;;;;0.65;0.40;;;;;;;15.53;100.00;100578.91;7389311;19;20018;-84
2022/07/14 06:41:41;;;;;;;1.30;0.73;;;;;;;15.58;100.00;100575.41;7389393;19;20022;-84
2022/07/14 06:44:10;;;;;;;0.43;0.40;;;;;;;15.67;100.00;100576.03;7388721;19;20476;-84
2022/07/14 06:46:38;;;;;;;1.83;0.55;;;;;;;15.77;100.00;100565.41;7391226;19;20019;-84
2022/07/14 06:49:05;;;;;;;0.80;0.55;;;;;;;15.85;100.00;100572.16;7388580;19;20015;-84
2022/07/14 06:51:31;;;;;;;1.35;0.55;;;;;;;15.95;100.00;100576.34;7387383;19;20024;-85
2022/07/14 06:53:57;;;;;;;1.52;0.47;;;;;;;16.15;100.00;100573.47;7389607;19;20011;-85
2022/07/14 06:56:23;;;;;;;0.20;0.20;;;;;;;16.39;100.00;100576.00;7392679;19;20022;-84
2022/07/14 06:58:50;;;;;;;1.55;0.75;;;;;;;16.72;100.00;100578.34;7391065;19;20014;-85
2022/07/14 07:01:16;;;;;;;5.63;1.25;;;;;;;16.93;100.00;100574.13;7390374;19;20476;-84
2022/07/14 07:03:42;;;;;;;3.15;0.88;;;;;;;17.03;100.00;100572.63;7396713;19;20045;-83
2022/07/14 07:08:53;;;;;;;2.15;0.82;;;;;;;17.23;100.00;100572.50;7393401;19;20350;-84
2022/07/14 07:11:19;;;;;;;1.50;0.63;;;;;;;17.25;100.00;100562.28;7395587;19;20011;-85
2022/07/14 07:13:45;;;;;;;0.82;0.43;;;;;;;17.33;100.00;100568.19;7396975;19;20014;-86
2022/07/14 07:16:11;;;;;;;4.32;0.85;;;;;;;17.43;100.00;100566.72;7395627;19;20029;-86
2022/07/14 07:18:37;;;;;;;5.63;1.20;;;;;;;17.56;100.00;100561.44;7392502;19;20646;-86
2022/07/14 07:21:04;;;;;;;11.30;1.42;;;;;;;17.68;100.00;100560.19;7389312;19;20022;-86
2022/07/14 07:23:30;;;;;;;2.17;0.80;;;;;;;17.67;100.00;100552.97;7386449;19;20378;-85
2022/07/14 07:25:56;;;;;;;1.00;0.43;;;;;;;17.60;100.00;100545.03;7389958;19;20044;-85
2022/07/14 07:28:22;;;;;;;0.95;0.50;;;;;;;17.55;100.00;100562.69;7387125;19;20014;-84
2022/07/14 07:30:49;;;;;;;6.45;2.42;;;;;;;17.58;100.00;100564.50;7387518;19;20095;-85
2022/07/14 07:33:15;;;;;;;0.63;0.25;;;;;;;17.59;100.00;100563.22;7386449;19;20372;-83
2022/07/14 07:35:45;;;;;;;0.50;0.32;;;;;;;17.54;100.00;100561.16;7389325;19;20026;-83
2022/07/14 07:38:12;;;;;;;1.08;0.52;;;;;;;17.53;100.00;100570.88;7388309;19;20025;-83
2022/07/14 07:40:38;;;;;;;1.33;0.17;;;;;;;17.50;100.00;100566.25;7390241;19;20014;-83
2022/07/14 07:43:04;;;;;;;1.73;0.85;;;;;;;17.50;100.00;100574.69;7385244;19;20018;-82
2022/07/14 07:45:30;;;;;;;1.67;0.70;;;;;;;17.60;100.00;100580.88;7392820;19;20010;-83
2022/07/14 07:47:56;;;;;;;3.65;0.45;;;;;;;17.87;100.00;100566.88;7385978;19;20010;-85
2022/07/14 07:50:23;;;;;;;1.42;0.50;;;;;;;18.29;100.00;100567.97;7387436;19;20018;-83
2022/07/14 07:52:49;;;;;;;3.47;0.32;;;;;;;18.58;100.00;100578.78;7386943;19;20014;-80
2022/07/14 07:55:15;;;;;;;6.90;0.93;;;;;;;18.75;100.00;100568.25;7387288;19;20085;-80
2022/07/14 07:57:43;;;;;;;4.13;1.45;;;;;;;19.05;100.00;100572.06;7388917;19;20373;-81
2022/07/14 08:00:13;;;;;;;0.40;0.20;;;;;;;19.27;100.00;100572.00;7385770;19;20034;-80
2022/07/14 08:02:48;;;;;;;1.35;0.20;;;;;;;19.23;100.00;100577.13;7385688;19;20429;-80
2022/07/14 08:05:19;;;;;;;3.60;0.40;;;;;;;19.27;100.00;100572.00;7385316;19;20098;-80
2022/07/14 08:07:45;;;;;;;3.08;0.10;;;;;;;19.32;100.00;100576.84;7386424;19;20062;-80
2022/07/14 08:10:12;;;;;;;3.85;0.75;;;;;;;19.32;100.00;100579.66;7385311;19;20601;-80
2022/07/14 08:12:38;;;;;;;5.13;0.57;;;;;;;19.40;100.00;100580.72;7391105;19;20022;-79
2022/07/14 08:15:06;;;;;;;0.47;0.25;;;;;;;19.52;100.00;100576.53;7389941;19;20034;-80
2022/07/14 08:17:33;;;;;;;2.92;0.52;;;;;;;19.71;100.00;100575.97;7387773;19;20025;-78
2022/07/14 08:19:59;;;;;;;0.63;0.60;;;;;;;19.88;100.00;100573.81;7385954;19;20022;-78
2022/07/14 08:22:27;;;;;;;1.95;0.52;;;;;;;19.97;100.00;100571.41;7384490;19;20023;-78
2022/07/14 08:24:55;;;;;;;3.05;0.90;;;;;;;19.87;100.00;100581.50;7385123;19;20010;-86
2022/07/14 08:27:22;;;;;;;1.25;0.20;;;;;;;19.73;100.00;100573.38;7386715;19;20398;-83
2022/07/14 08:29:49;;;;;;;2.22;0.40;;;;;;;19.55;100.00;100569.88;7386695;19;20018;-80
2022/07/14 08:32:16;;;;;;;1.58;0.35;;;;;;;19.40;100.00;100575.06;7386723;19;20019;-80
2022/07/14 08:34:42;;;;;;;0.38;0.20;;;;;;;19.25;100.00;100577.38;7384564;19;20098;-80
2022/07/14 08:37:08;;;;;;;2.38;0.68;;;;;;;19.14;100.00;100591.53;7391104;19;20042;-79
2022/07/14 08:39:35;;;;;;;0.38;0.10;;;;;;;19.06;100.00;100584.13;7385344;19;20014;-80
2022/07/14 08:42:02;;;;;;;1.23;0.30;;;;;;;19.10;100.00;100585.38;7385249;19;20025;-81
2022/07/14 08:44:29;;;;;;;4.95;0.70;;;;;;;19.19;100.00;100582.28;7387392;19;20046;-82
2022/07/14 08:46:56;;;;;;;3.13;0.30;;;;;;;19.31;100.00;100583.00;7390360;19;20029;-83
2022/07/14 08:49:23;;;;;;;4.68;0.70;;;;;;;19.52;100.00;100582.19;7382917;19;20368;-82
2022/07/14 08:51:49;;;;;;;0.60;0.40;;;;;;;19.78;100.00;100587.47;7390875;19;20025;-80
2022/07/14 08:54:16;;;;;;;2.22;1.25;;;;;;;20.08;100.00;100584.72;7390514;19;20022;-81
2022/07/14 08:56:43;;;;;;;1.65;0.20;;;;;;;20.04;100.00;100587.06;7397879;19;20026;-81
2022/07/14 08:59:10;;;;;;;1.17;0.63;;;;;;;19.91;100.00;100584.06;7392179;19;20025;-81
2022/07/14 09:01:36;;;;;;;2.10;0.50;;;;;;;19.71;100.00;100584.44;7391498;19;20026;-81
2022/07/14 09:04:04;;;;;;;2.38;0.50;;;;;;;19.63;100.00;100587.81;7391707;19;20472;-81
2022/07/14 09:06:51;;;;;;;0.13;0.10;;;;;;;19.63;100.00;100587.81;7396398;19;20024;-82
2022/07/14 09:09:18;;;;;;;5.38;0.50;;;;;;;19.78;100.00;100584.63;7391186;19;20728;-81
2022/07/14 09:11:52;;;;;;;4.38;0.22;;;;;;;19.88;100.00;100585.13;7394881;19;20022;-80
2022/07/14 09:14:18;;;;;;;0.95;0.38;;;;;;;19.98;100.00;100587.09;7391365;19;20018;-80
2022/07/14 09:16:45;;;;;;;0.40;0.10;;;;;;;20.04;100.00;100596.31;7396811;19;20860;-80
2022/07/14 09:19:13;;;;;;;0.17;0.10;;;;;;;20.01;100.00;100588.13;7391290;19;20041;-80
2022/07/14 09:21:44;;;;;;;0.43;0.20;;;;;;;19.92;100.00;100591.25;7389836;19;20015;-80
2022/07/14 09:24:14;;;;;;;0.82;0.15;;;;;;;19.90;100.00;100596.66;7388086;19;20045;-82
2022/07/14 09:26:51;;;;;;;1.00;0.20;;;;;;;19.80;100.00;100589.75;7396972;19;20026;-80
2022/07/14 09:29:25;;;;;;;0.73;0.20;;;;;;;19.59;100.00;100598.63;7389534;19;20011;-80
2022/07/14 09:31:51;;;;;;;1.92;0.45;;;;;;;19.39;100.00;100590.47;7392977;19;20479;-80
2022/07/14 09:34:29;;;;;;;2.40;0.30;;;;;;;19.06;100.00;100607.47;7388129;19;20882;-80
2022/07/14 09:37:17;;;;;;;3.05;0.30;;;;;;;18.80;100.00;100624.69;7395801;19;20022;-80
2022/07/14 09:40:15;;;;;;;4.05;0.30;;;;;;;18.57;100.00;100622.38;7389796;19;20014;-80
2022/07/14 09:42:48;;;;;;;0.63;0.35;;;;;;;18.40;100.00;100624.38;7391033;19;20027;-80
2022/07/14 09:45:15;;;;;;;0.63;0.30;;;;;;;18.21;100.00;100631.78;7392646;19;20014;-80
2022/07/14 09:47:58;;;;;;;0.85;0.30;;;;;;;18.16;100.00;100642.56;7391945;19;20411;-79
2022/07/14 09:50:56;;;;;;;0.10;0.05;;;;;;;18.24;100.00;100636.41;7390494;19;20022;-79
2022/07/14 09:53:34;;;;;;;1.50;0.57;;;;;;;18.48;100.00;100631.09;7390792;19;20042;-80
2022/07/14 09:56:10;;;;;;;1.38;0.43;;;;;;;18.79;100.00;100630.84;7392921;19;20373;-79
2022/07/14 09:58:39;;;;;;;0.13;0.03;;;;;;;19.15;100.00;100638.25;7394960;19;20582;-80
2022/07/14 10:01:11;;;;;;;0.10;0.03;;;;;;;19.60;100.00;100630.44;7389429;19;20476;-80
2022/07/14 10:03:42;;;;;;;0.20;0.10;;;;;;;19.77;100.00;100634.00;7389660;19;20022;-79
2022/07/14 10:06:10;;;;;;;0.98;0.20;;;;;;;19.81;100.00;100637.31;7391665;19;20023;-79
2022/07/14 10:08:43;;;;;;;1.48;0.40;;;;;;;19.77;100.00;100633.22;7388888;19;20010;-79
2022/07/14 10:11:13;;;;;;;0.25;0.10;;;;;;;19.62;100.00;100642.78;7389612;19;20025;-79
2022/07/14 10:13:39;;;;;;;1.23;0.20;;;;;;;19.42;100.00;100654.41;7388785;19;20479;-79
2022/07/14 10:16:06;;;;;;;12.07;0.52;;;;;;;19.42;100.00;100648.75;7394781;19;20020;-79
2022/07/14 10:18:33;;;;;;;0.85;0.13;;;;;;;19.45;100.00;100653.34;7390835;19;20018;-80
2022/07/14 10:21:01;;;;;;;0.85;0.20;;;;;;;19.35;100.00;100665.47;7389877;19;20018;-79
2022/07/14 10:23:29;;;;;;;16.70;0.38;;;;;;;19.10;100.00;100670.06;7390958;19;20463;-80
2022/07/14 10:25:57;;;;;;;1.70;0.32;;;;;;;18.81;100.00;100671.41;7391010;19;20372;-79
2022/07/14 10:28:24;;;;;;;4.68;0.40;;;;;;;18.58;100.00;100680.34;7390388;19;20014;-79
2022/07/14 10:31:10;;;;;;;3.72;0.40;;;;;;;18.31;100.00;100678.97;7386957;19;20023;-79
2022/07/14 10:33:45;;;;;;;0.75;0.40;;;;;;;18.16;100.00;100673.56;7387785;19;20070;-80
2022/07/14 10:36:18;;;;;;;0.52;0.17;;;;;;;18.08;100.00;100675.31;7390772;19;20018;-80
2022/07/14 10:39:09;;;;;;;3.33;0.68;;;;;;;18.00;100.00;100679.13;7388483;19;20021;-81
2022/07/14 10:41:58;;;;;;;0.63;0.45;;;;;;;17.93;100.00;100682.47;7390577;19;20083;-80
2022/07/14 10:44:29;;;;;;;0.22;0.10;;;;;;;17.88;100.00;100677.56;7388978;19;20018;-80
2022/07/14 10:47:10;;;;;;;0.20;0.17;;;;;;;17.96;100.00;100687.84;7393537;19;20472;-81
2022/07/14 10:50:04;;;;;;;1.75;0.43;;;;;;;18.07;100.00;100684.28;7386198;19;20434;-81
2022/07/14 10:52:33;;;;;;;1.25;0.30;;;;;;;18.23;100.00;100682.81;7389075;19;20378;-82
2022/07/14 10:55:32;;;;;;;0.60;0.45;;;;;;;18.48;100.00;100684.69;7387087;19;20022;-81
2022/07/14 10:58:05;;;;;;;7.65;0.52;;;;;;;18.85;100.00;100682.41;7390423;19;20500;-81
2022/07/14 11:00:40;;;;;;;4.95;0.22;;;;;;;19.13;100.00;100686.00;7387568;19;20025;-81
2022/07/14 11:03:43;;;;;;;0.28;0.20;;;;;;;19.46;100.00;100680.34;7388581;19;20026;-82
2022/07/14 11:06:09;;;;;;;1.88;0.10;;;;;;;19.77;100.00;100669.97;7391142;19;20042;-82
2022/07/14 11:08:40;;;;;;;2.83;0.10;;;;;;;19.95;100.00;100680.66;7386743;19;20019;-82
2022/07/14 11:11:20;;;;;;;2.35;0.20;;;;;;;20.08;100.00;100684.47;7389323;19;20037;-82
2022/07/14 11:14:01;;;;;;;4.28;0.22;;;;;;;20.34;100.00;100684.88;7386620;19;20026;-81
2022/07/14 11:16:50;;;;;;;0.20;0.10;;;;;;;20.67;100.00;100683.91;7391033;19;20018;-82
2022/07/14 11:19:21;;;;;;;0.52;0.20;;;;;;;20.88;100.00;100682.19;7387795;19;20018;-81
2022/07/14 11:22:11;;;;;;;0.10;0.10;;;;;;;21.10;100.00;100676.38;7387276;19;20472;-83
2022/07/14 11:24:53;;;;;;;1.85;0.28;;;;;;;20.99;100.00;100665.09;7386805;19;20014;-82
2022/07/14 11:27:27;;;;;;;0.35;0.15;;;;;;;20.67;100.00;100664.09;7393889;19;20030;-81
2022/07/14 11:30:15;;;;;;;2.45;0.55;;;;;;;20.86;100.00;100673.44;7385529;19;20484;-82
2022/07/14 11:32:42;;;;;;;1.02;0.15;;;;;;;21.21;100.00;100657.72;7387739;19;20026;-84
2022/07/14 11:38:20;;;;;;;0.63;0.10;;;;;;;21.86;100.00;100672.47;7388611;19;20014;-80